SEAM/ATF METAR and TAF weather

Enter ICAO airport designator
Station Type Date Time Source
SEAM METAR 2021/08/04 21:00 UTC NOAA

SEAM 042100Z 19008KT 9999 BKN020 16/06 Q1031


Station Type Date Time Source
SEAM Decoded METAR 2021/08/04 21:00 UTC NOAA

Ambato / Chachoan, Ecuador (SEAM) 01-12S 078-34W
Aug 04, 2021 - 05:00 PM EDT / 2021.08.04 2100 UTC
Wind: from the S (190 degrees) at 9 MPH (8 KT):0
Visibility: greater than 7 mile(s):0
Sky conditions: mostly cloudy
Temperature: 60 F (16 C)
Dew Point: 42 F (6 C)
Relative Humidity: 51%
Pressure (altimeter): 30.45 in. Hg (1031 hPa)
ob: SEAM 042100Z 19008KT 9999 BKN020 16/06 Q1031
cycle: 21

Station Type Date Time Source
SEAM TAF UTC NOAA

Error!

Example: see airport list